sensor_id;sensor_type;location;lat;lon;timestamp;P1;durP1;ratioP1;P2;durP2;ratioP2
9270;SDS011;4673;53.458;9.940;2023-08-07T00:00:42;2.85;;;2.85;;
9270;SDS011;4673;53.458;9.940;2023-08-07T00:03:08;2.70;;;2.70;;
9270;SDS011;4673;53.458;9.940;2023-08-07T00:05:34;2.88;;;2.88;;
9270;SDS011;4673;53.458;9.940;2023-08-07T00:07:59;2.60;;;2.60;;
9270;SDS011;4673;53.458;9.940;2023-08-07T00:10:25;2.75;;;2.75;;
9270;SDS011;4673;53.458;9.940;2023-08-07T00:12:51;2.83;;;2.83;;
9270;SDS011;4673;53.458;9.940;2023-08-07T00:15:17;2.80;;;2.80;;
9270;SDS011;4673;53.458;9.940;2023-08-07T00:17:43;2.78;;;2.78;;
9270;SDS011;4673;53.458;9.940;2023-08-07T00:20:08;2.85;;;2.85;;
9270;SDS011;4673;53.458;9.940;2023-08-07T00:22:34;3.15;;;3.15;;
9270;SDS011;4673;53.458;9.940;2023-08-07T00:25:00;2.70;;;2.70;;
9270;SDS011;4673;53.458;9.940;2023-08-07T00:27:26;3.20;;;3.20;;
9270;SDS011;4673;53.458;9.940;2023-08-07T00:29:51;2.10;;;2.10;;
9270;SDS011;4673;53.458;9.940;2023-08-07T00:32:17;2.78;;;2.78;;
9270;SDS011;4673;53.458;9.940;2023-08-07T00:34:43;2.33;;;2.33;;
9270;SDS011;4673;53.458;9.940;2023-08-07T00:37:08;2.20;;;2.20;;
9270;SDS011;4673;53.458;9.940;2023-08-07T00:39:34;2.78;;;2.78;;
9270;SDS011;4673;53.458;9.940;2023-08-07T00:42:00;2.28;;;2.28;;
9270;SDS011;4673;53.458;9.940;2023-08-07T00:44:25;2.38;;;2.38;;
9270;SDS011;4673;53.458;9.940;2023-08-07T00:46:51;2.60;;;2.60;;
9270;SDS011;4673;53.458;9.940;2023-08-07T00:49:17;2.50;;;2.50;;
9270;SDS011;4673;53.458;9.940;2023-08-07T00:51:44;2.20;;;2.20;;
9270;SDS011;4673;53.458;9.940;2023-08-07T00:54:11;2.30;;;2.30;;
9270;SDS011;4673;53.458;9.940;2023-08-07T00:56:39;2.08;;;2.08;;
9270;SDS011;4673;53.458;9.940;2023-08-07T00:59:05;2.42;;;2.42;;
9270;SDS011;4673;53.458;9.940;2023-08-07T01:01:31;2.00;;;2.00;;
9270;SDS011;4673;53.458;9.940;2023-08-07T01:03:57;2.63;;;2.63;;
9270;SDS011;4673;53.458;9.940;2023-08-07T01:06:23;2.13;;;2.13;;
9270;SDS011;4673;53.458;9.940;2023-08-07T01:08:48;2.17;;;2.17;;
9270;SDS011;4673;53.458;9.940;2023-08-07T01:19:42;1.92;;;1.92;;
9270;SDS011;4673;53.458;9.940;2023-08-07T01:22:11;1.67;;;1.67;;
9270;SDS011;4673;53.458;9.940;2023-08-07T01:24:39;1.80;;;1.80;;
9270;SDS011;4673;53.458;9.940;2023-08-07T01:27:19;2.00;;;2.00;;
9270;SDS011;4673;53.458;9.940;2023-08-07T01:35:49;1.80;;;1.80;;
9270;SDS011;4673;53.458;9.940;2023-08-07T01:38:18;2.15;;;2.15;;
9270;SDS011;4673;53.458;9.940;2023-08-07T01:40:46;2.45;;;2.45;;
9270;SDS011;4673;53.458;9.940;2023-08-07T01:43:13;2.28;;;2.28;;
9270;SDS011;4673;53.458;9.940;2023-08-07T01:45:39;2.13;;;2.13;;
9270;SDS011;4673;53.458;9.940;2023-08-07T01:48:05;2.30;;;2.30;;
9270;SDS011;4673;53.458;9.940;2023-08-07T01:50:30;2.25;;;2.25;;
9270;SDS011;4673;53.458;9.940;2023-08-07T01:52:56;2.72;;;2.72;;
9270;SDS011;4673;53.458;9.940;2023-08-07T01:55:22;2.03;;;2.03;;
9270;SDS011;4673;53.458;9.940;2023-08-07T01:57:48;1.88;;;1.88;;
9270;SDS011;4673;53.458;9.940;2023-08-07T02:00:13;2.03;;;2.03;;
9270;SDS011;4673;53.458;9.940;2023-08-07T02:02:39;2.00;;;2.00;;
9270;SDS011;4673;53.458;9.940;2023-08-07T02:05:05;2.20;;;2.20;;
9270;SDS011;4673;53.458;9.940;2023-08-07T02:07:31;2.05;;;2.05;;
9270;SDS011;4673;53.458;9.940;2023-08-07T02:09:57;2.50;;;2.50;;
9270;SDS011;4673;53.458;9.940;2023-08-07T02:12:23;2.30;;;2.30;;
9270;SDS011;4673;53.458;9.940;2023-08-07T02:14:50;2.00;;;2.00;;
9270;SDS011;4673;53.458;9.940;2023-08-07T02:17:16;2.08;;;2.08;;
9270;SDS011;4673;53.458;9.940;2023-08-07T02:19:41;1.80;;;1.80;;
9270;SDS011;4673;53.458;9.940;2023-08-07T02:22:07;2.33;;;2.33;;
9270;SDS011;4673;53.458;9.940;2023-08-07T02:24:32;1.65;;;1.65;;
9270;SDS011;4673;53.458;9.940;2023-08-07T02:26:58;2.40;;;2.40;;
9270;SDS011;4673;53.458;9.940;2023-08-07T02:29:24;2.00;;;2.00;;
9270;SDS011;4673;53.458;9.940;2023-08-07T02:31:49;1.65;;;1.65;;
9270;SDS011;4673;53.458;9.940;2023-08-07T02:34:15;1.60;;;1.60;;
9270;SDS011;4673;53.458;9.940;2023-08-07T02:36:41;1.85;;;1.85;;
9270;SDS011;4673;53.458;9.940;2023-08-07T02:39:06;1.77;;;1.77;;
9270;SDS011;4673;53.458;9.940;2023-08-07T02:41:32;1.77;;;1.77;;
9270;SDS011;4673;53.458;9.940;2023-08-07T02:43:58;1.55;;;1.55;;
9270;SDS011;4673;53.458;9.940;2023-08-07T02:46:23;1.60;;;1.60;;
9270;SDS011;4673;53.458;9.940;2023-08-07T02:48:49;1.75;;;1.75;;
9270;SDS011;4673;53.458;9.940;2023-08-07T02:51:15;1.77;;;1.77;;
9270;SDS011;4673;53.458;9.940;2023-08-07T02:53:41;1.77;;;1.77;;
9270;SDS011;4673;53.458;9.940;2023-08-07T02:56:06;1.73;;;1.73;;
9270;SDS011;4673;53.458;9.940;2023-08-07T02:58:32;1.40;;;1.40;;
9270;SDS011;4673;53.458;9.940;2023-08-07T03:01:02;1.70;;;1.70;;
9270;SDS011;4673;53.458;9.940;2023-08-07T03:03:29;1.42;;;1.42;;
9270;SDS011;4673;53.458;9.940;2023-08-07T03:05:55;1.58;;;1.58;;
9270;SDS011;4673;53.458;9.940;2023-08-07T03:08:20;1.55;;;1.55;;
9270;SDS011;4673;53.458;9.940;2023-08-07T03:10:52;1.77;;;1.77;;
9270;SDS011;4673;53.458;9.940;2023-08-07T03:13:20;1.60;;;1.60;;
9270;SDS011;4673;53.458;9.940;2023-08-07T03:15:46;1.55;;;1.55;;
9270;SDS011;4673;53.458;9.940;2023-08-07T03:18:14;1.55;;;1.55;;
9270;SDS011;4673;53.458;9.940;2023-08-07T03:20:40;1.42;;;1.42;;
9270;SDS011;4673;53.458;9.940;2023-08-07T03:23:05;1.48;;;1.48;;
9270;SDS011;4673;53.458;9.940;2023-08-07T03:25:31;1.60;;;1.60;;
9270;SDS011;4673;53.458;9.940;2023-08-07T03:27:56;2.10;;;2.10;;
9270;SDS011;4673;53.458;9.940;2023-08-07T03:30:22;1.55;;;1.55;;
9270;SDS011;4673;53.458;9.940;2023-08-07T03:32:48;1.88;;;1.88;;
9270;SDS011;4673;53.458;9.940;2023-08-07T03:35:14;1.70;;;1.70;;
9270;SDS011;4673;53.458;9.940;2023-08-07T03:37:40;1.45;;;1.45;;
9270;SDS011;4673;53.458;9.940;2023-08-07T03:40:06;2.05;;;2.05;;
9270;SDS011;4673;53.458;9.940;2023-08-07T03:42:32;1.30;;;1.30;;
9270;SDS011;4673;53.458;9.940;2023-08-07T03:44:58;1.63;;;1.63;;
9270;SDS011;4673;53.458;9.940;2023-08-07T03:47:23;2.03;;;2.03;;
9270;SDS011;4673;53.458;9.940;2023-08-07T03:49:49;1.50;;;1.50;;
9270;SDS011;4673;53.458;9.940;2023-08-07T03:52:15;1.60;;;1.60;;
9270;SDS011;4673;53.458;9.940;2023-08-07T03:54:40;1.80;;;1.80;;
9270;SDS011;4673;53.458;9.940;2023-08-07T03:57:06;1.80;;;1.80;;
9270;SDS011;4673;53.458;9.940;2023-08-07T03:59:33;1.45;;;1.45;;
9270;SDS011;4673;53.458;9.940;2023-08-07T04:01:59;1.75;;;1.75;;
9270;SDS011;4673;53.458;9.940;2023-08-07T04:04:24;1.67;;;1.67;;
9270;SDS011;4673;53.458;9.940;2023-08-07T04:06:50;1.67;;;1.67;;
9270;SDS011;4673;53.458;9.940;2023-08-07T04:09:15;1.90;;;1.90;;
9270;SDS011;4673;53.458;9.940;2023-08-07T04:11:42;1.95;;;1.95;;
9270;SDS011;4673;53.458;9.940;2023-08-07T04:14:07;1.90;;;1.90;;
9270;SDS011;4673;53.458;9.940;2023-08-07T04:16:33;1.80;;;1.80;;
9270;SDS011;4673;53.458;9.940;2023-08-07T04:18:59;1.80;;;1.80;;
9270;SDS011;4673;53.458;9.940;2023-08-07T04:21:24;2.03;;;2.03;;
9270;SDS011;4673;53.458;9.940;2023-08-07T04:23:50;2.30;;;2.30;;
9270;SDS011;4673;53.458;9.940;2023-08-07T04:26:15;1.70;;;1.70;;
9270;SDS011;4673;53.458;9.940;2023-08-07T04:28:41;1.80;;;1.80;;
9270;SDS011;4673;53.458;9.940;2023-08-07T04:31:07;2.00;;;2.00;;
9270;SDS011;4673;53.458;9.940;2023-08-07T04:33:33;2.70;;;2.70;;
9270;SDS011;4673;53.458;9.940;2023-08-07T04:35:58;1.90;;;1.90;;
9270;SDS011;4673;53.458;9.940;2023-08-07T04:38:24;1.88;;;1.88;;
9270;SDS011;4673;53.458;9.940;2023-08-07T04:40:50;2.03;;;2.03;;
9270;SDS011;4673;53.458;9.940;2023-08-07T04:43:17;2.20;;;2.20;;
9270;SDS011;4673;53.458;9.940;2023-08-07T04:45:44;1.90;;;1.90;;
9270;SDS011;4673;53.458;9.940;2023-08-07T04:48:10;3.40;;;3.40;;
9270;SDS011;4673;53.458;9.940;2023-08-07T04:50:36;2.50;;;2.50;;
9270;SDS011;4673;53.458;9.940;2023-08-07T04:53:03;2.20;;;2.20;;
9270;SDS011;4673;53.458;9.940;2023-08-07T04:55:30;1.70;;;1.70;;
9270;SDS011;4673;53.458;9.940;2023-08-07T04:57:56;2.53;;;2.53;;
9270;SDS011;4673;53.458;9.940;2023-08-07T05:00:22;2.08;;;2.08;;
9270;SDS011;4673;53.458;9.940;2023-08-07T05:02:48;1.95;;;1.95;;
9270;SDS011;4673;53.458;9.940;2023-08-07T05:05:14;2.30;;;2.30;;
9270;SDS011;4673;53.458;9.940;2023-08-07T05:07:41;1.75;;;1.75;;
9270;SDS011;4673;53.458;9.940;2023-08-07T05:10:09;1.45;;;1.45;;
9270;SDS011;4673;53.458;9.940;2023-08-07T05:12:35;2.33;;;2.33;;
9270;SDS011;4673;53.458;9.940;2023-08-07T05:15:01;2.00;;;2.00;;
9270;SDS011;4673;53.458;9.940;2023-08-07T05:17:26;2.05;;;2.05;;
9270;SDS011;4673;53.458;9.940;2023-08-07T05:19:52;1.90;;;1.90;;
9270;SDS011;4673;53.458;9.940;2023-08-07T05:22:18;1.73;;;1.73;;
9270;SDS011;4673;53.458;9.940;2023-08-07T05:24:43;2.15;;;2.15;;
9270;SDS011;4673;53.458;9.940;2023-08-07T05:27:10;1.70;;;1.70;;
9270;SDS011;4673;53.458;9.940;2023-08-07T05:29:39;2.20;;;2.20;;
9270;SDS011;4673;53.458;9.940;2023-08-07T05:32:11;2.00;;;2.00;;
9270;SDS011;4673;53.458;9.940;2023-08-07T05:34:37;2.33;;;2.33;;
9270;SDS011;4673;53.458;9.940;2023-08-07T05:37:03;2.35;;;2.35;;
9270;SDS011;4673;53.458;9.940;2023-08-07T05:39:30;2.65;;;2.65;;
9270;SDS011;4673;53.458;9.940;2023-08-07T05:41:55;1.80;;;1.80;;
9270;SDS011;4673;53.458;9.940;2023-08-07T05:44:23;1.80;;;1.80;;
9270;SDS011;4673;53.458;9.940;2023-08-07T05:46:48;1.95;;;1.95;;
9270;SDS011;4673;53.458;9.940;2023-08-07T05:49:14;2.40;;;2.40;;
9270;SDS011;4673;53.458;9.940;2023-08-07T05:51:40;2.47;;;2.47;;
9270;SDS011;4673;53.458;9.940;2023-08-07T05:54:06;2.38;;;2.38;;
9270;SDS011;4673;53.458;9.940;2023-08-07T05:56:32;2.85;;;2.85;;
9270;SDS011;4673;53.458;9.940;2023-08-07T05:58:57;3.00;;;3.00;;
9270;SDS011;4673;53.458;9.940;2023-08-07T06:01:23;3.10;;;3.10;;
9270;SDS011;4673;53.458;9.940;2023-08-07T06:03:54;2.47;;;2.47;;
9270;SDS011;4673;53.458;9.940;2023-08-07T06:06:20;1.90;;;1.90;;
9270;SDS011;4673;53.458;9.940;2023-08-07T06:08:46;2.80;;;2.80;;
9270;SDS011;4673;53.458;9.940;2023-08-07T06:11:11;2.47;;;2.47;;
9270;SDS011;4673;53.458;9.940;2023-08-07T06:13:37;2.78;;;2.78;;
9270;SDS011;4673;53.458;9.940;2023-08-07T06:16:04;2.90;;;2.90;;
9270;SDS011;4673;53.458;9.940;2023-08-07T06:18:29;2.63;;;2.63;;
9270;SDS011;4673;53.458;9.940;2023-08-07T06:20:55;2.95;;;2.95;;
9270;SDS011;4673;53.458;9.940;2023-08-07T06:23:21;2.38;;;2.38;;
9270;SDS011;4673;53.458;9.940;2023-08-07T06:25:47;2.53;;;2.53;;
9270;SDS011;4673;53.458;9.940;2023-08-07T06:28:12;3.15;;;3.15;;
9270;SDS011;4673;53.458;9.940;2023-08-07T06:30:38;3.45;;;3.45;;
9270;SDS011;4673;53.458;9.940;2023-08-07T06:33:04;3.90;;;3.90;;
9270;SDS011;4673;53.458;9.940;2023-08-07T06:35:29;3.35;;;3.35;;
9270;SDS011;4673;53.458;9.940;2023-08-07T06:37:55;3.00;;;3.00;;
9270;SDS011;4673;53.458;9.940;2023-08-07T06:40:21;3.58;;;3.58;;
9270;SDS011;4673;53.458;9.940;2023-08-07T06:42:46;2.85;;;2.85;;
9270;SDS011;4673;53.458;9.940;2023-08-07T06:45:12;2.67;;;2.67;;
9270;SDS011;4673;53.458;9.940;2023-08-07T06:47:38;2.72;;;2.72;;
9270;SDS011;4673;53.458;9.940;2023-08-07T06:50:03;2.90;;;2.90;;
9270;SDS011;4673;53.458;9.940;2023-08-07T06:52:30;2.20;;;2.20;;
9270;SDS011;4673;53.458;9.940;2023-08-07T06:54:55;3.15;;;3.15;;
9270;SDS011;4673;53.458;9.940;2023-08-07T06:57:21;3.78;;;3.78;;
9270;SDS011;4673;53.458;9.940;2023-08-07T06:59:47;3.00;;;3.00;;
9270;SDS011;4673;53.458;9.940;2023-08-07T07:02:12;2.47;;;2.47;;
9270;SDS011;4673;53.458;9.940;2023-08-07T07:04:38;2.53;;;2.53;;
9270;SDS011;4673;53.458;9.940;2023-08-07T07:07:04;3.85;;;3.85;;
9270;SDS011;4673;53.458;9.940;2023-08-07T07:09:29;3.15;;;3.15;;
9270;SDS011;4673;53.458;9.940;2023-08-07T07:11:55;3.50;;;3.50;;
9270;SDS011;4673;53.458;9.940;2023-08-07T07:14:21;4.10;;;4.00;;
9270;SDS011;4673;53.458;9.940;2023-08-07T07:16:47;3.50;;;3.50;;
9270;SDS011;4673;53.458;9.940;2023-08-07T07:19:13;4.03;;;4.03;;
9270;SDS011;4673;53.458;9.940;2023-08-07T07:21:39;4.30;;;4.30;;
9270;SDS011;4673;53.458;9.940;2023-08-07T07:24:04;3.70;;;3.70;;
9270;SDS011;4673;53.458;9.940;2023-08-07T07:26:31;4.00;;;4.00;;
9270;SDS011;4673;53.458;9.940;2023-08-07T07:28:57;4.40;;;4.40;;
9270;SDS011;4673;53.458;9.940;2023-08-07T07:31:22;4.75;;;4.65;;
9270;SDS011;4673;53.458;9.940;2023-08-07T07:33:48;3.88;;;3.88;;
9270;SDS011;4673;53.458;9.940;2023-08-07T07:36:17;4.95;;;4.85;;
9270;SDS011;4673;53.458;9.940;2023-08-07T07:38:47;4.90;;;4.90;;
9270;SDS011;4673;53.458;9.940;2023-08-07T07:41:16;4.13;;;4.13;;
9270;SDS011;4673;53.458;9.940;2023-08-07T07:43:42;4.18;;;4.15;;
9270;SDS011;4673;53.458;9.940;2023-08-07T07:46:08;5.07;;;4.97;;
9270;SDS011;4673;53.458;9.940;2023-08-07T07:48:34;5.15;;;5.05;;
9270;SDS011;4673;53.458;9.940;2023-08-07T07:51:00;4.57;;;4.57;;
9270;SDS011;4673;53.458;9.940;2023-08-07T07:53:27;5.50;;;5.43;;
9270;SDS011;4673;53.458;9.940;2023-08-07T07:55:53;4.35;;;4.35;;
9270;SDS011;4673;53.458;9.940;2023-08-07T07:58:19;4.55;;;4.55;;
9270;SDS011;4673;53.458;9.940;2023-08-07T08:00:45;5.18;;;5.15;;
9270;SDS011;4673;53.458;9.940;2023-08-07T08:03:11;5.85;;;5.85;;
9270;SDS011;4673;53.458;9.940;2023-08-07T08:05:37;4.22;;;4.22;;
9270;SDS011;4673;53.458;9.940;2023-08-07T08:08:04;4.05;;;4.05;;
9270;SDS011;4673;53.458;9.940;2023-08-07T08:10:32;3.70;;;3.70;;
9270;SDS011;4673;53.458;9.940;2023-08-07T08:12:59;3.63;;;3.63;;
9270;SDS011;4673;53.458;9.940;2023-08-07T08:15:25;3.83;;;3.83;;
9270;SDS011;4673;53.458;9.940;2023-08-07T08:17:51;3.50;;;3.50;;
9270;SDS011;4673;53.458;9.940;2023-08-07T08:20:16;3.58;;;3.58;;
9270;SDS011;4673;53.458;9.940;2023-08-07T08:22:45;4.20;;;4.20;;
9270;SDS011;4673;53.458;9.940;2023-08-07T08:25:11;4.10;;;4.10;;
9270;SDS011;4673;53.458;9.940;2023-08-07T08:27:38;3.70;;;3.70;;
9270;SDS011;4673;53.458;9.940;2023-08-07T08:30:04;4.72;;;4.72;;
9270;SDS011;4673;53.458;9.940;2023-08-07T08:32:30;4.88;;;4.88;;
9270;SDS011;4673;53.458;9.940;2023-08-07T08:34:56;3.53;;;3.53;;
9270;SDS011;4673;53.458;9.940;2023-08-07T08:37:21;4.20;;;4.20;;
9270;SDS011;4673;53.458;9.940;2023-08-07T08:39:47;4.40;;;4.40;;
9270;SDS011;4673;53.458;9.940;2023-08-07T08:42:13;3.55;;;3.55;;
9270;SDS011;4673;53.458;9.940;2023-08-07T08:44:40;4.13;;;4.03;;
9270;SDS011;4673;53.458;9.940;2023-08-07T08:47:11;4.38;;;4.38;;
9270;SDS011;4673;53.458;9.940;2023-08-07T08:49:42;3.20;;;3.20;;
9270;SDS011;4673;53.458;9.940;2023-08-07T08:52:12;3.60;;;3.60;;
9270;SDS011;4673;53.458;9.940;2023-08-07T08:54:38;3.75;;;3.70;;
9270;SDS011;4673;53.458;9.940;2023-08-07T08:57:08;3.97;;;3.97;;
9270;SDS011;4673;53.458;9.940;2023-08-07T08:59:34;3.90;;;3.90;;
9270;SDS011;4673;53.458;9.940;2023-08-07T09:01:59;3.13;;;3.13;;
9270;SDS011;4673;53.458;9.940;2023-08-07T09:04:25;3.58;;;3.58;;
9270;SDS011;4673;53.458;9.940;2023-08-07T09:06:51;3.58;;;3.58;;
9270;SDS011;4673;53.458;9.940;2023-08-07T09:09:17;3.47;;;3.47;;
9270;SDS011;4673;53.458;9.940;2023-08-07T09:11:45;3.20;;;3.20;;
9270;SDS011;4673;53.458;9.940;2023-08-07T09:14:13;2.72;;;2.72;;
9270;SDS011;4673;53.458;9.940;2023-08-07T09:16:42;3.75;;;3.75;;
9270;SDS011;4673;53.458;9.940;2023-08-07T09:19:12;3.35;;;3.35;;
9270;SDS011;4673;53.458;9.940;2023-08-07T09:21:38;3.10;;;3.10;;
9270;SDS011;4673;53.458;9.940;2023-08-07T09:24:04;3.22;;;3.22;;
9270;SDS011;4673;53.458;9.940;2023-08-07T09:26:31;2.92;;;2.92;;
9270;SDS011;4673;53.458;9.940;2023-08-07T09:29:01;2.97;;;2.97;;
9270;SDS011;4673;53.458;9.940;2023-08-07T09:31:27;2.88;;;2.88;;
9270;SDS011;4673;53.458;9.940;2023-08-07T09:33:58;2.97;;;2.97;;
9270;SDS011;4673;53.458;9.940;2023-08-07T09:36:29;7.05;;;6.85;;
9270;SDS011;4673;53.458;9.940;2023-08-07T09:38:56;2.72;;;2.72;;
9270;SDS011;4673;53.458;9.940;2023-08-07T09:41:26;3.67;;;3.67;;
9270;SDS011;4673;53.458;9.940;2023-08-07T09:43:53;2.85;;;2.85;;
9270;SDS011;4673;53.458;9.940;2023-08-07T09:46:19;2.90;;;2.90;;
9270;SDS011;4673;53.458;9.940;2023-08-07T09:48:45;2.97;;;2.97;;
9270;SDS011;4673;53.458;9.940;2023-08-07T09:51:11;2.70;;;2.70;;
9270;SDS011;4673;53.458;9.940;2023-08-07T09:53:36;2.75;;;2.75;;
9270;SDS011;4673;53.458;9.940;2023-08-07T09:56:02;2.78;;;2.78;;
9270;SDS011;4673;53.458;9.940;2023-08-07T09:58:28;2.92;;;2.92;;
9270;SDS011;4673;53.458;9.940;2023-08-07T10:00:55;3.33;;;3.33;;
9270;SDS011;4673;53.458;9.940;2023-08-07T10:03:24;2.88;;;2.88;;
9270;SDS011;4673;53.458;9.940;2023-08-07T10:05:51;2.85;;;2.85;;
9270;SDS011;4673;53.458;9.940;2023-08-07T10:08:17;3.58;;;3.58;;
9270;SDS011;4673;53.458;9.940;2023-08-07T10:10:43;3.22;;;3.22;;
9270;SDS011;4673;53.458;9.940;2023-08-07T10:13:12;3.30;;;3.30;;
9270;SDS011;4673;53.458;9.940;2023-08-07T10:15:39;3.05;;;3.05;;
9270;SDS011;4673;53.458;9.940;2023-08-07T10:18:07;2.97;;;2.97;;
9270;SDS011;4673;53.458;9.940;2023-08-07T10:20:33;2.42;;;2.42;;
9270;SDS011;4673;53.458;9.940;2023-08-07T10:23:09;3.00;;;3.00;;
9270;SDS011;4673;53.458;9.940;2023-08-07T10:25:37;3.03;;;3.03;;
9270;SDS011;4673;53.458;9.940;2023-08-07T10:28:08;2.67;;;2.67;;
9270;SDS011;4673;53.458;9.940;2023-08-07T10:30:37;3.03;;;3.03;;
9270;SDS011;4673;53.458;9.940;2023-08-07T10:33:04;2.97;;;2.97;;
9270;SDS011;4673;53.458;9.940;2023-08-07T10:35:32;3.13;;;3.13;;
9270;SDS011;4673;53.458;9.940;2023-08-07T10:38:05;3.08;;;3.08;;
9270;SDS011;4673;53.458;9.940;2023-08-07T10:40:33;3.20;;;3.20;;
9270;SDS011;4673;53.458;9.940;2023-08-07T10:45:33;2.67;;;2.67;;
9270;SDS011;4673;53.458;9.940;2023-08-07T10:48:12;2.90;;;2.90;;
9270;SDS011;4673;53.458;9.940;2023-08-07T10:51:16;3.25;;;3.25;;
9270;SDS011;4673;53.458;9.940;2023-08-07T10:53:38;3.00;;;3.00;;
9270;SDS011;4673;53.458;9.940;2023-08-07T10:56:08;3.45;;;3.45;;
9270;SDS011;4673;53.458;9.940;2023-08-07T10:58:35;2.45;;;2.45;;
9270;SDS011;4673;53.458;9.940;2023-08-07T11:03:48;3.05;;;3.05;;
9270;SDS011;4673;53.458;9.940;2023-08-07T11:06:17;2.90;;;2.90;;
9270;SDS011;4673;53.458;9.940;2023-08-07T11:08:46;2.70;;;2.70;;
9270;SDS011;4673;53.458;9.940;2023-08-07T11:11:13;3.15;;;3.15;;
9270;SDS011;4673;53.458;9.940;2023-08-07T11:13:39;3.03;;;3.03;;
9270;SDS011;4673;53.458;9.940;2023-08-07T11:16:05;2.85;;;2.85;;
9270;SDS011;4673;53.458;9.940;2023-08-07T11:18:31;2.65;;;2.65;;
9270;SDS011;4673;53.458;9.940;2023-08-07T11:20:57;2.58;;;2.58;;
9270;SDS011;4673;53.458;9.940;2023-08-07T11:23:25;2.97;;;2.97;;
9270;SDS011;4673;53.458;9.940;2023-08-07T11:25:52;2.67;;;2.67;;
9270;SDS011;4673;53.458;9.940;2023-08-07T11:28:19;2.20;;;2.20;;
9270;SDS011;4673;53.458;9.940;2023-08-07T11:30:46;2.78;;;2.78;;
9270;SDS011;4673;53.458;9.940;2023-08-07T11:33:13;3.15;;;3.15;;
9270;SDS011;4673;53.458;9.940;2023-08-07T11:35:42;2.05;;;2.05;;
9270;SDS011;4673;53.458;9.940;2023-08-07T11:38:08;2.88;;;2.88;;
9270;SDS011;4673;53.458;9.940;2023-08-07T11:40:34;1.90;;;1.90;;
9270;SDS011;4673;53.458;9.940;2023-08-07T11:43:01;2.63;;;2.63;;
9270;SDS011;4673;53.458;9.940;2023-08-07T11:45:27;3.00;;;3.00;;
9270;SDS011;4673;53.458;9.940;2023-08-07T11:47:53;2.00;;;2.00;;
9270;SDS011;4673;53.458;9.940;2023-08-07T11:50:21;2.33;;;2.33;;
9270;SDS011;4673;53.458;9.940;2023-08-07T11:52:47;2.50;;;2.50;;
9270;SDS011;4673;53.458;9.940;2023-08-07T11:55:16;2.05;;;2.05;;
9270;SDS011;4673;53.458;9.940;2023-08-07T11:57:45;2.10;;;2.10;;
9270;SDS011;4673;53.458;9.940;2023-08-07T12:00:12;2.53;;;2.53;;
9270;SDS011;4673;53.458;9.940;2023-08-07T12:02:41;2.72;;;2.72;;
9270;SDS011;4673;53.458;9.940;2023-08-07T12:05:10;2.08;;;2.08;;
9270;SDS011;4673;53.458;9.940;2023-08-07T12:07:37;2.67;;;2.67;;
9270;SDS011;4673;53.458;9.940;2023-08-07T12:10:06;2.33;;;2.33;;
9270;SDS011;4673;53.458;9.940;2023-08-07T12:12:36;2.50;;;2.50;;
9270;SDS011;4673;53.458;9.940;2023-08-07T12:15:03;2.45;;;2.45;;
9270;SDS011;4673;53.458;9.940;2023-08-07T12:17:32;3.22;;;3.22;;
9270;SDS011;4673;53.458;9.940;2023-08-07T12:19:58;2.95;;;2.95;;
9270;SDS011;4673;53.458;9.940;2023-08-07T12:22:23;2.67;;;2.67;;
9270;SDS011;4673;53.458;9.940;2023-08-07T12:24:55;3.42;;;3.42;;
9270;SDS011;4673;53.458;9.940;2023-08-07T12:27:21;2.75;;;2.75;;
9270;SDS011;4673;53.458;9.940;2023-08-07T12:29:46;3.15;;;3.15;;
9270;SDS011;4673;53.458;9.940;2023-08-07T12:32:12;3.00;;;3.00;;
9270;SDS011;4673;53.458;9.940;2023-08-07T12:34:38;3.13;;;3.13;;
9270;SDS011;4673;53.458;9.940;2023-08-07T12:37:04;2.47;;;2.47;;
9270;SDS011;4673;53.458;9.940;2023-08-07T12:39:29;3.78;;;3.78;;
9270;SDS011;4673;53.458;9.940;2023-08-07T12:41:55;2.33;;;2.33;;
9270;SDS011;4673;53.458;9.940;2023-08-07T12:44:21;2.88;;;2.88;;
9270;SDS011;4673;53.458;9.940;2023-08-07T12:46:46;2.75;;;2.75;;
9270;SDS011;4673;53.458;9.940;2023-08-07T12:49:13;2.40;;;2.40;;
9270;SDS011;4673;53.458;9.940;2023-08-07T12:51:40;2.58;;;2.58;;
9270;SDS011;4673;53.458;9.940;2023-08-07T12:54:05;3.15;;;3.15;;
9270;SDS011;4673;53.458;9.940;2023-08-07T12:56:31;2.72;;;2.72;;
9270;SDS011;4673;53.458;9.940;2023-08-07T12:58:57;2.28;;;2.28;;
9270;SDS011;4673;53.458;9.940;2023-08-07T13:01:22;2.50;;;2.50;;
9270;SDS011;4673;53.458;9.940;2023-08-07T13:03:48;2.28;;;2.28;;
9270;SDS011;4673;53.458;9.940;2023-08-07T13:06:14;2.63;;;2.63;;
9270;SDS011;4673;53.458;9.940;2023-08-07T13:08:39;3.10;;;3.10;;
9270;SDS011;4673;53.458;9.940;2023-08-07T13:11:05;2.45;;;2.45;;
9270;SDS011;4673;53.458;9.940;2023-08-07T13:13:31;2.63;;;2.63;;
9270;SDS011;4673;53.458;9.940;2023-08-07T13:15:57;2.65;;;2.65;;
9270;SDS011;4673;53.458;9.940;2023-08-07T13:18:23;2.55;;;2.55;;
9270;SDS011;4673;53.458;9.940;2023-08-07T13:20:49;2.15;;;2.15;;
9270;SDS011;4673;53.458;9.940;2023-08-07T13:23:15;2.30;;;2.30;;
9270;SDS011;4673;53.458;9.940;2023-08-07T13:25:40;3.03;;;3.03;;
9270;SDS011;4673;53.458;9.940;2023-08-07T13:28:06;2.10;;;2.10;;
9270;SDS011;4673;53.458;9.940;2023-08-07T13:30:35;2.67;;;2.67;;
9270;SDS011;4673;53.458;9.940;2023-08-07T13:33:01;2.45;;;2.45;;
9270;SDS011;4673;53.458;9.940;2023-08-07T13:35:26;1.88;;;1.88;;
9270;SDS011;4673;53.458;9.940;2023-08-07T13:37:52;3.10;;;3.10;;
9270;SDS011;4673;53.458;9.940;2023-08-07T13:40:18;2.63;;;2.63;;
9270;SDS011;4673;53.458;9.940;2023-08-07T13:42:43;3.05;;;3.05;;
9270;SDS011;4673;53.458;9.940;2023-08-07T13:45:11;2.95;;;2.95;;
9270;SDS011;4673;53.458;9.940;2023-08-07T13:47:38;3.42;;;3.42;;
9270;SDS011;4673;53.458;9.940;2023-08-07T13:50:04;2.40;;;2.40;;
9270;SDS011;4673;53.458;9.940;2023-08-07T13:52:32;3.15;;;3.15;;
9270;SDS011;4673;53.458;9.940;2023-08-07T13:54:58;2.85;;;2.85;;
9270;SDS011;4673;53.458;9.940;2023-08-07T13:57:24;3.33;;;3.33;;
9270;SDS011;4673;53.458;9.940;2023-08-07T13:59:49;3.45;;;3.45;;
9270;SDS011;4673;53.458;9.940;2023-08-07T14:02:15;3.47;;;3.47;;
9270;SDS011;4673;53.458;9.940;2023-08-07T14:04:40;2.83;;;2.83;;
9270;SDS011;4673;53.458;9.940;2023-08-07T14:07:10;3.05;;;3.05;;
9270;SDS011;4673;53.458;9.940;2023-08-07T14:09:36;3.13;;;3.13;;
9270;SDS011;4673;53.458;9.940;2023-08-07T14:12:02;2.92;;;2.92;;
9270;SDS011;4673;53.458;9.940;2023-08-07T14:14:28;3.28;;;3.28;;
9270;SDS011;4673;53.458;9.940;2023-08-07T14:16:54;2.88;;;2.88;;
9270;SDS011;4673;53.458;9.940;2023-08-07T14:19:22;2.83;;;2.83;;
9270;SDS011;4673;53.458;9.940;2023-08-07T14:21:48;3.33;;;3.33;;
9270;SDS011;4673;53.458;9.940;2023-08-07T14:24:14;2.20;;;2.20;;
9270;SDS011;4673;53.458;9.940;2023-08-07T14:26:42;3.40;;;3.40;;
9270;SDS011;4673;53.458;9.940;2023-08-07T14:29:07;2.58;;;2.58;;
9270;SDS011;4673;53.458;9.940;2023-08-07T14:31:33;3.17;;;3.17;;
9270;SDS011;4673;53.458;9.940;2023-08-07T14:33:59;2.40;;;2.40;;
9270;SDS011;4673;53.458;9.940;2023-08-07T14:36:25;2.45;;;2.45;;
9270;SDS011;4673;53.458;9.940;2023-08-07T14:38:50;2.50;;;2.50;;
9270;SDS011;4673;53.458;9.940;2023-08-07T14:41:17;2.50;;;2.50;;
9270;SDS011;4673;53.458;9.940;2023-08-07T14:43:43;2.63;;;2.63;;
9270;SDS011;4673;53.458;9.940;2023-08-07T14:46:10;2.92;;;2.92;;
9270;SDS011;4673;53.458;9.940;2023-08-07T14:48:36;2.75;;;2.75;;
9270;SDS011;4673;53.458;9.940;2023-08-07T14:51:02;3.08;;;3.08;;
9270;SDS011;4673;53.458;9.940;2023-08-07T14:53:27;2.80;;;2.80;;
9270;SDS011;4673;53.458;9.940;2023-08-07T14:55:53;2.30;;;2.30;;
9270;SDS011;4673;53.458;9.940;2023-08-07T14:58:19;2.75;;;2.75;;
9270;SDS011;4673;53.458;9.940;2023-08-07T15:00:45;3.85;;;3.85;;
9270;SDS011;4673;53.458;9.940;2023-08-07T15:03:11;2.50;;;2.50;;
9270;SDS011;4673;53.458;9.940;2023-08-07T15:05:36;3.53;;;3.53;;
9270;SDS011;4673;53.458;9.940;2023-08-07T15:08:02;2.55;;;2.55;;
9270;SDS011;4673;53.458;9.940;2023-08-07T15:10:28;3.35;;;3.35;;
9270;SDS011;4673;53.458;9.940;2023-08-07T15:12:54;2.95;;;2.95;;
9270;SDS011;4673;53.458;9.940;2023-08-07T15:15:21;3.10;;;3.10;;
9270;SDS011;4673;53.458;9.940;2023-08-07T15:17:46;2.38;;;2.38;;
9270;SDS011;4673;53.458;9.940;2023-08-07T15:20:12;2.35;;;2.35;;
9270;SDS011;4673;53.458;9.940;2023-08-07T15:22:38;2.67;;;2.67;;
9270;SDS011;4673;53.458;9.940;2023-08-07T15:25:04;2.67;;;2.67;;
9270;SDS011;4673;53.458;9.940;2023-08-07T15:27:30;2.55;;;2.55;;
9270;SDS011;4673;53.458;9.940;2023-08-07T15:29:55;2.33;;;2.33;;